sensor_id;sensor_type;location;lat;lon;timestamp;pressure;altitude;pressure_sealevel;temperature;humidity
48668;BME280;34453;52.198;5.004;2023-04-08T00:02:19;102456.84;;;7.56;100.00
48668;BME280;34453;52.198;5.004;2023-04-08T00:04:45;102458.28;;;7.45;100.00
48668;BME280;34453;52.198;5.004;2023-04-08T00:07:10;102468.69;;;7.45;100.00
48668;BME280;34453;52.198;5.004;2023-04-08T00:09:36;102464.41;;;7.44;100.00
48668;BME280;34453;52.198;5.004;2023-04-08T00:12:02;102461.63;;;7.32;100.00
48668;BME280;34453;52.198;5.004;2023-04-08T00:14:28;102461.94;;;7.25;100.00
48668;BME280;34453;52.198;5.004;2023-04-08T00:16:53;102466.53;;;7.20;100.00
48668;BME280;34453;52.198;5.004;2023-04-08T00:19:19;102467.44;;;7.19;100.00
48668;BME280;34453;52.198;5.004;2023-04-08T00:21:44;102457.88;;;7.20;100.00
48668;BME280;34453;52.198;5.004;2023-04-08T00:24:10;102465.09;;;7.15;100.00
48668;BME280;34453;52.198;5.004;2023-04-08T00:26:35;102469.00;;;7.06;100.00
48668;BME280;34453;52.198;5.004;2023-04-08T00:29:01;102471.38;;;6.93;100.00
48668;BME280;34453;52.198;5.004;2023-04-08T00:31:27;102469.94;;;6.88;100.00
48668;BME280;34453;52.198;5.004;2023-04-08T00:33:52;102466.88;;;6.79;100.00
48668;BME280;34453;52.198;5.004;2023-04-08T00:36:18;102461.72;;;6.78;100.00
48668;BME280;34453;52.198;5.004;2023-04-08T00:38:44;102467.88;;;6.77;100.00
48668;BME280;34453;52.198;5.004;2023-04-08T00:41:09;102465.56;;;6.71;100.00
48668;BME280;34453;52.198;5.004;2023-04-08T00:43:34;102468.16;;;6.71;100.00
48668;BME280;34453;52.198;5.004;2023-04-08T00:46:00;102466.16;;;6.76;100.00
48668;BME280;34453;52.198;5.004;2023-04-08T00:48:25;102477.34;;;6.78;100.00
48668;BME280;34453;52.198;5.004;2023-04-08T00:50:51;102471.06;;;6.64;100.00
48668;BME280;34453;52.198;5.004;2023-04-08T00:53:18;102461.38;;;6.68;100.00
48668;BME280;34453;52.198;5.004;2023-04-08T00:55:44;102464.50;;;6.75;100.00
48668;BME280;34453;52.198;5.004;2023-04-08T00:58:10;102463.44;;;6.79;100.00
48668;BME280;34453;52.198;5.004;2023-04-08T01:00:40;102474.59;;;6.81;100.00
48668;BME280;34453;52.198;5.004;2023-04-08T01:09:08;102474.81;;;6.41;100.00
48668;BME280;34453;52.198;5.004;2023-04-08T01:11:34;102478.00;;;6.29;100.00
48668;BME280;34453;52.198;5.004;2023-04-08T01:14:05;102469.56;;;6.24;100.00
48668;BME280;34453;52.198;5.004;2023-04-08T01:16:35;102475.63;;;6.42;100.00
48668;BME280;34453;52.198;5.004;2023-04-08T01:19:04;102487.91;;;6.75;100.00
48668;BME280;34453;52.198;5.004;2023-04-08T01:21:32;102488.81;;;6.91;100.00
48668;BME280;34453;52.198;5.004;2023-04-08T01:24:19;102489.88;;;7.04;100.00
48668;BME280;34453;52.198;5.004;2023-04-08T01:26:47;102489.88;;;7.04;100.00
48668;BME280;34453;52.198;5.004;2023-04-08T01:29:13;102496.78;;;7.05;100.00
48668;BME280;34453;52.198;5.004;2023-04-08T01:31:41;102499.09;;;7.12;100.00
48668;BME280;34453;52.198;5.004;2023-04-08T01:34:09;102492.47;;;7.22;100.00
48668;BME280;34453;52.198;5.004;2023-04-08T01:36:37;102498.22;;;7.29;100.00
48668;BME280;34453;52.198;5.004;2023-04-08T01:39:04;102504.13;;;7.32;100.00
48668;BME280;34453;52.198;5.004;2023-04-08T01:41:33;102505.47;;;7.39;100.00
48668;BME280;34453;52.198;5.004;2023-04-08T01:44:01;102507.00;;;7.43;100.00
48668;BME280;34453;52.198;5.004;2023-04-08T01:46:28;102509.34;;;7.48;100.00
48668;BME280;34453;52.198;5.004;2023-04-08T01:48:54;102510.28;;;7.47;100.00
48668;BME280;34453;52.198;5.004;2023-04-08T01:51:22;102515.09;;;7.55;100.00
48668;BME280;34453;52.198;5.004;2023-04-08T01:53:47;102510.31;;;7.63;100.00
48668;BME280;34453;52.198;5.004;2023-04-08T01:56:14;102521.16;;;7.71;100.00
48668;BME280;34453;52.198;5.004;2023-04-08T01:58:43;102514.28;;;7.70;100.00
48668;BME280;34453;52.198;5.004;2023-04-08T02:01:13;102519.56;;;7.68;100.00
48668;BME280;34453;52.198;5.004;2023-04-08T02:03:42;102519.50;;;7.70;100.00
48668;BME280;34453;52.198;5.004;2023-04-08T02:06:08;102522.69;;;7.75;100.00
48668;BME280;34453;52.198;5.004;2023-04-08T02:08:34;102521.59;;;7.79;100.00
48668;BME280;34453;52.198;5.004;2023-04-08T02:11:01;102520.84;;;7.77;100.00
48668;BME280;34453;52.198;5.004;2023-04-08T02:13:28;102516.66;;;7.75;100.00
48668;BME280;34453;52.198;5.004;2023-04-08T02:16:00;102519.06;;;7.78;100.00
48668;BME280;34453;52.198;5.004;2023-04-08T02:18:29;102519.19;;;7.76;100.00
48668;BME280;34453;52.198;5.004;2023-04-08T02:21:16;102522.63;;;7.77;100.00
48668;BME280;34453;52.198;5.004;2023-04-08T02:23:48;102521.84;;;7.75;100.00
48668;BME280;34453;52.198;5.004;2023-04-08T02:26:16;102522.69;;;7.75;100.00
48668;BME280;34453;52.198;5.004;2023-04-08T02:28:42;102516.66;;;7.75;100.00
48668;BME280;34453;52.198;5.004;2023-04-08T02:31:10;102520.00;;;7.77;100.00
48668;BME280;34453;52.198;5.004;2023-04-08T02:33:39;102526.06;;;7.77;100.00
48668;BME280;34453;52.198;5.004;2023-04-08T02:36:06;102525.91;;;7.80;100.00
48668;BME280;34453;52.198;5.004;2023-04-08T02:38:32;102517.34;;;7.78;100.00
48668;BME280;34453;52.198;5.004;2023-04-08T02:40:58;102521.78;;;7.76;100.00
48668;BME280;34453;52.198;5.004;2023-04-08T02:43:24;102524.38;;;7.76;100.00
48668;BME280;34453;52.198;5.004;2023-04-08T02:45:57;102530.50;;;7.75;100.00
48668;BME280;34453;52.198;5.004;2023-04-08T02:48:24;102531.34;;;7.76;100.00
48668;BME280;34453;52.198;5.004;2023-04-08T02:50:50;102534.63;;;7.79;100.00
48668;BME280;34453;52.198;5.004;2023-04-08T02:53:15;102539.91;;;7.78;100.00
48668;BME280;34453;52.198;5.004;2023-04-08T02:55:41;102542.53;;;7.78;100.00
48668;BME280;34453;52.198;5.004;2023-04-08T02:58:06;102537.66;;;7.72;100.00
48668;BME280;34453;52.198;5.004;2023-04-08T03:00:32;102532.28;;;7.75;100.00
48668;BME280;34453;52.198;5.004;2023-04-08T03:02:57;102541.53;;;7.80;100.00
48668;BME280;34453;52.198;5.004;2023-04-08T03:05:23;102545.66;;;7.84;100.00
48668;BME280;34453;52.198;5.004;2023-04-08T03:07:48;102545.81;;;7.81;100.00
48668;BME280;34453;52.198;5.004;2023-04-08T03:10:14;102546.75;;;7.80;100.00
48668;BME280;34453;52.198;5.004;2023-04-08T03:12:40;102545.75;;;7.83;100.00
48668;BME280;34453;52.198;5.004;2023-04-08T03:15:06;102558.34;;;7.91;100.00
48668;BME280;34453;52.198;5.004;2023-04-08T03:17:31;102553.38;;;7.86;100.00
48668;BME280;34453;52.198;5.004;2023-04-08T03:19:59;102543.38;;;7.78;100.00
48668;BME280;34453;52.198;5.004;2023-04-08T03:22:25;102553.94;;;7.75;100.00
48668;BME280;34453;52.198;5.004;2023-04-08T03:24:50;102550.25;;;7.63;100.00
48668;BME280;34453;52.198;5.004;2023-04-08T03:27:16;102551.03;;;7.48;100.00
48668;BME280;34453;52.198;5.004;2023-04-08T03:29:41;102540.25;;;7.38;100.00
48668;BME280;34453;52.198;5.004;2023-04-08T03:32:07;102545.06;;;7.29;100.00
48668;BME280;34453;52.198;5.004;2023-04-08T03:34:35;102544.41;;;7.25;100.00
48668;BME280;34453;52.198;5.004;2023-04-08T03:37:01;102550.81;;;7.18;100.00
48668;BME280;34453;52.198;5.004;2023-04-08T03:39:26;102552.88;;;7.11;100.00
48668;BME280;34453;52.198;5.004;2023-04-08T03:41:51;102551.91;;;7.14;100.00
48668;BME280;34453;52.198;5.004;2023-04-08T03:44:17;102548.69;;;7.09;100.00
48668;BME280;34453;52.198;5.004;2023-04-08T03:46:42;102550.69;;;7.03;100.00
48668;BME280;34453;52.198;5.004;2023-04-08T03:49:08;102550.84;;;7.00;100.00
48668;BME280;34453;52.198;5.004;2023-04-08T03:51:33;102554.81;;;6.90;100.00
48668;BME280;34453;52.198;5.004;2023-04-08T03:53:58;102560.16;;;6.87;100.00
48668;BME280;34453;52.198;5.004;2023-04-08T03:56:24;102555.25;;;6.81;100.00
48668;BME280;34453;52.198;5.004;2023-04-08T03:58:50;102552.78;;;6.78;100.00
48668;BME280;34453;52.198;5.004;2023-04-08T04:01:15;102559.53;;;6.82;100.00
48668;BME280;34453;52.198;5.004;2023-04-08T04:03:41;102561.69;;;6.74;100.00
48668;BME280;34453;52.198;5.004;2023-04-08T04:06:06;102558.31;;;6.72;100.00
48668;BME280;34453;52.198;5.004;2023-04-08T04:08:32;102574.69;;;6.74;100.00
48668;BME280;34453;52.198;5.004;2023-04-08T04:10:58;102562.28;;;6.79;100.00
48668;BME280;34453;52.198;5.004;2023-04-08T04:13:24;102565.78;;;6.78;100.00
48668;BME280;34453;52.198;5.004;2023-04-08T04:15:49;102569.72;;;6.87;100.00
48668;BME280;34453;52.198;5.004;2023-04-08T04:18:15;102571.63;;;6.83;100.00
48668;BME280;34453;52.198;5.004;2023-04-08T04:20:41;102562.28;;;6.79;100.00
48668;BME280;34453;52.198;5.004;2023-04-08T04:23:06;102562.50;;;6.74;100.00
48668;BME280;34453;52.198;5.004;2023-04-08T04:25:32;102572.81;;;6.76;100.00
48668;BME280;34453;52.198;5.004;2023-04-08T04:27:58;102581.41;;;6.78;100.00
48668;BME280;34453;52.198;5.004;2023-04-08T04:30:23;102583.72;;;6.84;100.00
48668;BME280;34453;52.198;5.004;2023-04-08T04:32:48;102589.91;;;6.81;100.00
48668;BME280;34453;52.198;5.004;2023-04-08T04:35:14;102592.28;;;6.86;100.00
48668;BME280;34453;52.198;5.004;2023-04-08T04:37:40;102586.19;;;6.87;100.00
48668;BME280;34453;52.198;5.004;2023-04-08T04:40:06;102604.84;;;6.95;100.00
48668;BME280;34453;52.198;5.004;2023-04-08T04:42:32;102600.66;;;6.93;100.00
48668;BME280;34453;52.198;5.004;2023-04-08T04:44:58;102596.81;;;7.00;100.00
48668;BME280;34453;52.198;5.004;2023-04-08T04:47:24;102605.50;;;7.00;100.00
48668;BME280;34453;52.198;5.004;2023-04-08T04:49:49;102612.31;;;7.03;100.00
48668;BME280;34453;52.198;5.004;2023-04-08T04:52:15;102610.16;;;7.11;100.00
48668;BME280;34453;52.198;5.004;2023-04-08T04:54:41;102608.41;;;7.12;100.00
48668;BME280;34453;52.198;5.004;2023-04-08T04:57:06;102610.91;;;7.13;100.00
48668;BME280;34453;52.198;5.004;2023-04-08T04:59:32;102619.59;;;7.14;100.00
48668;BME280;34453;52.198;5.004;2023-04-08T05:01:57;102617.66;;;7.17;100.00
48668;BME280;34453;52.198;5.004;2023-04-08T05:04:24;102617.19;;;7.26;100.00
48668;BME280;34453;52.198;5.004;2023-04-08T05:06:49;102622.50;;;7.25;100.00
48668;BME280;34453;52.198;5.004;2023-04-08T05:09:15;102621.34;;;7.31;100.00
48668;BME280;34453;52.198;5.004;2023-04-08T05:11:40;102617.84;;;7.32;100.00
48668;BME280;34453;52.198;5.004;2023-04-08T05:14:06;102621.22;;;7.34;100.00
48668;BME280;34453;52.198;5.004;2023-04-08T05:16:32;102630.63;;;7.36;100.00
48668;BME280;34453;52.198;5.004;2023-04-08T05:18:57;102627.09;;;7.37;100.00
48668;BME280;34453;52.198;5.004;2023-04-08T05:21:23;102626.41;;;7.34;100.00
48668;BME280;34453;52.198;5.004;2023-04-08T05:23:48;102630.53;;;7.38;100.00
48668;BME280;34453;52.198;5.004;2023-04-08T05:26:19;102635.66;;;7.39;100.00
48668;BME280;34453;52.198;5.004;2023-04-08T05:28:48;102636.38;;;7.43;100.00
48668;BME280;34453;52.198;5.004;2023-04-08T05:31:16;102640.50;;;7.47;100.00
48668;BME280;34453;52.198;5.004;2023-04-08T05:33:41;102634.06;;;7.54;100.00
48668;BME280;34453;52.198;5.004;2023-04-08T05:36:07;102638.44;;;7.54;100.00
48668;BME280;34453;52.198;5.004;2023-04-08T05:38:33;102636.91;;;7.50;100.00
48668;BME280;34453;52.198;5.004;2023-04-08T05:40:58;102643.13;;;7.47;100.00
48668;BME280;34453;52.198;5.004;2023-04-08T05:43:23;102645.63;;;7.48;100.00
48668;BME280;34453;52.198;5.004;2023-04-08T05:45:49;102649.00;;;7.33;100.00
48668;BME280;34453;52.198;5.004;2023-04-08T05:48:15;102645.91;;;7.42;100.00
48668;BME280;34453;52.198;5.004;2023-04-08T05:50:40;102655.50;;;7.42;100.00
48668;BME280;34453;52.198;5.004;2023-04-08T05:53:08;102654.38;;;7.47;100.00
48668;BME280;34453;52.198;5.004;2023-04-08T05:55:33;102659.13;;;7.57;100.00
48668;BME280;34453;52.198;5.004;2023-04-08T05:57:59;102656.69;;;7.54;100.00
48668;BME280;34453;52.198;5.004;2023-04-08T06:00:24;102664.31;;;7.57;100.00
48668;BME280;34453;52.198;5.004;2023-04-08T06:02:50;102651.53;;;7.35;100.00
48668;BME280;34453;52.198;5.004;2023-04-08T06:05:16;102645.72;;;7.30;100.00
48668;BME280;34453;52.198;5.004;2023-04-08T06:07:43;102653.22;;;7.18;100.00
48668;BME280;34453;52.198;5.004;2023-04-08T06:10:09;102661.38;;;7.11;100.00
48668;BME280;34453;52.198;5.004;2023-04-08T06:12:35;102657.72;;;7.15;100.00
48668;BME280;34453;52.198;5.004;2023-04-08T06:15:01;102658.78;;;7.11;100.00
48668;BME280;34453;52.198;5.004;2023-04-08T06:17:27;102661.25;;;7.14;100.00
48668;BME280;34453;52.198;5.004;2023-04-08T06:19:52;102653.34;;;7.15;100.00
48668;BME280;34453;52.198;5.004;2023-04-08T06:22:17;102654.81;;;7.21;100.00
48668;BME280;34453;52.198;5.004;2023-04-08T06:24:43;102662.47;;;7.24;100.00
48668;BME280;34453;52.198;5.004;2023-04-08T06:27:09;102667.22;;;7.33;100.00
48668;BME280;34453;52.198;5.004;2023-04-08T06:29:34;102668.91;;;7.34;100.00
48668;BME280;34453;52.198;5.004;2023-04-08T06:32:00;102663.41;;;7.40;100.00
48668;BME280;34453;52.198;5.004;2023-04-08T06:34:25;102673.97;;;7.37;100.00
48668;BME280;34453;52.198;5.004;2023-04-08T06:36:50;102672.66;;;7.29;100.00
48668;BME280;34453;52.198;5.004;2023-04-08T06:39:16;102674.34;;;7.30;100.00
48668;BME280;34453;52.198;5.004;2023-04-08T06:41:43;102678.56;;;7.32;100.00
48668;BME280;34453;52.198;5.004;2023-04-08T06:44:08;102679.88;;;7.41;100.00
48668;BME280;34453;52.198;5.004;2023-04-08T06:46:34;102682.91;;;7.49;100.00
48668;BME280;34453;52.198;5.004;2023-04-08T06:48:59;102675.97;;;7.50;100.00
48668;BME280;34453;52.198;5.004;2023-04-08T06:51:25;102680.03;;;7.55;100.00
48668;BME280;34453;52.198;5.004;2023-04-08T06:53:52;102686.69;;;7.61;100.00
48668;BME280;34453;52.198;5.004;2023-04-08T06:56:17;102691.06;;;7.60;100.00
48668;BME280;34453;52.198;5.004;2023-04-08T06:58:43;102691.06;;;7.60;100.00
48668;BME280;34453;52.198;5.004;2023-04-08T07:01:08;102693.44;;;7.65;100.00
48668;BME280;34453;52.198;5.004;2023-04-08T07:03:34;102688.53;;;7.59;100.00
48668;BME280;34453;52.198;5.004;2023-04-08T07:05:59;102703.09;;;7.63;100.00
48668;BME280;34453;52.198;5.004;2023-04-08T07:08:25;102702.34;;;7.61;100.00
48668;BME280;34453;52.198;5.004;2023-04-08T07:10:51;102701.69;;;7.56;100.00
48668;BME280;34453;52.198;5.004;2023-04-08T07:13:17;102700.97;;;7.54;100.00
48668;BME280;34453;52.198;5.004;2023-04-08T07:15:42;102705.84;;;7.60;100.00
48668;BME280;34453;52.198;5.004;2023-04-08T07:18:08;102712.47;;;7.67;100.00
48668;BME280;34453;52.198;5.004;2023-04-08T07:20:33;102715.66;;;7.72;100.00
48668;BME280;34453;52.198;5.004;2023-04-08T07:23:02;102716.34;;;7.76;100.00
48668;BME280;34453;52.198;5.004;2023-04-08T07:25:28;102718.28;;;7.89;100.00
48668;BME280;34453;52.198;5.004;2023-04-08T07:27:53;102710.63;;;8.02;100.00
48668;BME280;34453;52.198;5.004;2023-04-08T07:30:18;102714.00;;;8.04;100.00
48668;BME280;34453;52.198;5.004;2023-04-08T07:32:44;102716.78;;;8.01;100.00
48668;BME280;34453;52.198;5.004;2023-04-08T07:35:09;102717.56;;;8.03;100.00
48668;BME280;34453;52.198;5.004;2023-04-08T07:37:35;102727.34;;;8.16;100.00
48668;BME280;34453;52.198;5.004;2023-04-08T07:40:00;102723.41;;;8.24;100.00
48668;BME280;34453;52.198;5.004;2023-04-08T07:42:26;102726.97;;;8.23;100.00
48668;BME280;34453;52.198;5.004;2023-04-08T07:44:51;102723.09;;;8.30;100.00
48668;BME280;34453;52.198;5.004;2023-04-08T07:47:17;102724.63;;;8.35;100.00
48668;BME280;34453;52.198;5.004;2023-04-08T07:49:47;102717.13;;;8.28;100.00
48668;BME280;34453;52.198;5.004;2023-04-08T07:52:12;102725.53;;;8.51;100.00
48668;BME280;34453;52.198;5.004;2023-04-08T07:54:38;102720.00;;;8.57;100.00
48668;BME280;34453;52.198;5.004;2023-04-08T07:57:03;102726.56;;;8.64;100.00
48668;BME280;34453;52.198;5.004;2023-04-08T07:59:28;102725.84;;;8.78;100.00
48668;BME280;34453;52.198;5.004;2023-04-08T08:01:55;102724.72;;;8.82;100.00
48668;BME280;34453;52.198;5.004;2023-04-08T08:04:20;102728.59;;;8.91;100.00
48668;BME280;34453;52.198;5.004;2023-04-08T08:06:46;102725.16;;;9.06;100.00
48668;BME280;34453;52.198;5.004;2023-04-08T08:09:11;102725.56;;;9.15;100.00
48668;BME280;34453;52.198;5.004;2023-04-08T08:11:37;102725.81;;;9.26;100.00
48668;BME280;34453;52.198;5.004;2023-04-08T08:14:03;102730.91;;;9.43;100.00
48668;BME280;34453;52.198;5.004;2023-04-08T08:16:29;102731.91;;;9.57;100.00
48668;BME280;34453;52.198;5.004;2023-04-08T08:18:56;102728.56;;;9.69;100.00
48668;BME280;34453;52.198;5.004;2023-04-08T08:21:21;102734.53;;;9.71;100.00
48668;BME280;34453;52.198;5.004;2023-04-08T08:23:47;102735.00;;;9.63;100.00
48668;BME280;34453;52.198;5.004;2023-04-08T08:26:12;102739.22;;;9.66;100.00
48668;BME280;34453;52.198;5.004;2023-04-08T08:28:38;102734.75;;;9.68;100.00
48668;BME280;34453;52.198;5.004;2023-04-08T08:31:04;102728.13;;;9.77;100.00
48668;BME280;34453;52.198;5.004;2023-04-08T08:33:30;102727.47;;;9.73;100.00
48668;BME280;34453;52.198;5.004;2023-04-08T08:35:56;102727.09;;;9.79;100.00
48668;BME280;34453;52.198;5.004;2023-04-08T08:38:23;102725.06;;;9.84;100.00
48668;BME280;34453;52.198;5.004;2023-04-08T08:40:56;102732.75;;;10.02;100.00
48668;BME280;34453;52.198;5.004;2023-04-08T08:43:27;102725.09;;;10.13;100.00
48668;BME280;34453;52.198;5.004;2023-04-08T08:45:53;102731.16;;;10.13;100.00
48668;BME280;34453;52.198;5.004;2023-04-08T08:48:19;102731.63;;;10.20;100.00
48668;BME280;34453;52.198;5.004;2023-04-08T08:50:44;102733.75;;;10.29;100.00
48668;BME280;34453;52.198;5.004;2023-04-08T08:53:11;102731.50;;;10.37;100.00
48668;BME280;34453;52.198;5.004;2023-04-08T08:55:36;102739.16;;;10.55;100.00
48668;BME280;34453;52.198;5.004;2023-04-08T08:58:05;102737.84;;;10.62;100.00
48668;BME280;34453;52.198;5.004;2023-04-08T09:00:39;102735.03;;;10.65;100.00
48668;BME280;34453;52.198;5.004;2023-04-08T09:03:14;102732.03;;;10.71;100.00
48668;BME280;34453;52.198;5.004;2023-04-08T09:05:54;102734.25;;;10.77;100.00
48668;BME280;34453;52.198;5.004;2023-04-08T09:08:36;102738.34;;;10.96;100.00
48668;BME280;34453;52.198;5.004;2023-04-08T09:13:36;102738.84;;;11.15;100.00
48668;BME280;34453;52.198;5.004;2023-04-08T09:16:04;102741.09;;;11.22;100.00
48668;BME280;34453;52.198;5.004;2023-04-08T09:18:30;102742.75;;;11.23;100.00
48668;BME280;34453;52.198;5.004;2023-04-08T09:20:58;102748.31;;;11.45;100.00
48668;BME280;34453;52.198;5.004;2023-04-08T09:23:36;102752.94;;;11.54;100.00
48668;BME280;34453;52.198;5.004;2023-04-08T09:26:22;102745.81;;;11.56;100.00
48668;BME280;34453;52.198;5.004;2023-04-08T09:29:08;102754.84;;;11.78;100.00
48668;BME280;34453;52.198;5.004;2023-04-08T09:31:35;102753.88;;;11.93;100.00
48668;BME280;34453;52.198;5.004;2023-04-08T09:34:13;102754.28;;;12.00;100.00
48668;BME280;34453;52.198;5.004;2023-04-08T09:36:40;102754.31;;;12.13;100.00
48668;BME280;34453;52.198;5.004;2023-04-08T09:39:06;102748.84;;;12.16;100.00
48668;BME280;34453;52.198;5.004;2023-04-08T09:41:36;102754.94;;;12.03;100.00
48668;BME280;34453;52.198;5.004;2023-04-08T09:44:03;102749.47;;;12.32;100.00
48668;BME280;34453;52.198;5.004;2023-04-08T09:50:00;102751.97;;;12.59;100.00
48668;BME280;34453;52.198;5.004;2023-04-08T09:52:47;102757.69;;;12.90;100.00
48668;BME280;34453;52.198;5.004;2023-04-08T09:55:21;102748.31;;;12.99;100.00
48668;BME280;34453;52.198;5.004;2023-04-08T10:00:33;102756.84;;;13.14;100.00
48668;BME280;34453;52.198;5.004;2023-04-08T10:03:10;102753.25;;;13.27;100.00
48668;BME280;34453;52.198;5.004;2023-04-08T10:05:40;102754.56;;;13.09;100.00
48668;BME280;34453;52.198;5.004;2023-04-08T10:08:06;102756.63;;;13.30;100.00
48668;BME280;34453;52.198;5.004;2023-04-08T10:10:37;102743.63;;;13.39;100.00
48668;BME280;34453;52.198;5.004;2023-04-08T10:13:04;102750.72;;;13.26;100.00
48668;BME280;34453;52.198;5.004;2023-04-08T10:15:32;102739.59;;;13.46;100.00
48668;BME280;34453;52.198;5.004;2023-04-08T10:23:05;102740.25;;;13.61;100.00
48668;BME280;34453;52.198;5.004;2023-04-08T10:25:35;102749.75;;;13.86;100.00
48668;BME280;34453;52.198;5.004;2023-04-08T10:30:45;102747.75;;;14.01;100.00
48668;BME280;34453;52.198;5.004;2023-04-08T10:33:22;102746.22;;;13.99;100.00
48668;BME280;34453;52.198;5.004;2023-04-08T10:35:49;102739.84;;;13.90;100.00
48668;BME280;34453;52.198;5.004;2023-04-08T10:38:18;102743.28;;;13.79;100.00
48668;BME280;34453;52.198;5.004;2023-04-08T10:40:43;102737.69;;;13.84;100.00
48668;BME280;34453;52.198;5.004;2023-04-08T10:43:11;102740.34;;;14.06;100.00
48668;BME280;34453;52.198;5.004;2023-04-08T10:45:37;102742.88;;;14.08;100.00
48668;BME280;34453;52.198;5.004;2023-04-08T10:48:16;102732.44;;;14.51;100.00
48668;BME280;34453;52.198;5.004;2023-04-08T10:50:56;102731.28;;;14.56;100.00
48668;BME280;34453;52.198;5.004;2023-04-08T10:53:27;102732.25;;;14.66;100.00
48668;BME280;34453;52.198;5.004;2023-04-08T10:55:54;102724.09;;;14.69;100.00
48668;BME280;34453;52.198;5.004;2023-04-08T10:58:27;102719.31;;;14.74;100.00
48668;BME280;34453;52.198;5.004;2023-04-08T11:00:52;102722.16;;;14.82;100.00
48668;BME280;34453;52.198;5.004;2023-04-08T11:03:18;102724.06;;;14.80;100.00
48668;BME280;34453;52.198;5.004;2023-04-08T11:05:43;102727.44;;;14.71;100.00
48668;BME280;34453;52.198;5.004;2023-04-08T11:08:09;102722.88;;;14.84;100.00
48668;BME280;34453;52.198;5.004;2023-04-08T11:10:36;102713.78;;;15.09;100.00
48668;BME280;34453;52.198;5.004;2023-04-08T11:13:08;102723.03;;;15.15;100.00
48668;BME280;34453;52.198;5.004;2023-04-08T11:15:37;102735.22;;;15.27;100.00
48668;BME280;34453;52.198;5.004;2023-04-08T11:18:04;102724.03;;;15.56;100.00
48668;BME280;34453;52.198;5.004;2023-04-08T11:20:31;102720.84;;;15.73;100.00
48668;BME280;34453;52.198;5.004;2023-04-08T11:22:58;102729.84;;;15.71;100.00
48668;BME280;34453;52.198;5.004;2023-04-08T11:25:24;102730.50;;;15.63;100.00
48668;BME280;34453;52.198;5.004;2023-04-08T11:27:50;102727.28;;;15.81;100.00
48668;BME280;34453;52.198;5.004;2023-04-08T11:30:16;102732.94;;;15.76;100.00
48668;BME280;34453;52.198;5.004;2023-04-08T11:32:41;102729.41;;;15.87;100.00
48668;BME280;34453;52.198;5.004;2023-04-08T11:35:07;102722.47;;;15.86;100.00
48668;BME280;34453;52.198;5.004;2023-04-08T11:37:40;102730.38;;;15.86;100.00
48668;BME280;34453;52.198;5.004;2023-04-08T11:40:18;102734.75;;;15.75;100.00
48668;BME280;34453;52.198;5.004;2023-04-08T11:42:44;102735.72;;;15.74;100.00
48668;BME280;34453;52.198;5.004;2023-04-08T11:45:11;102726.25;;;15.93;100.00
48668;BME280;34453;52.198;5.004;2023-04-08T11:47:38;102731.53;;;15.93;100.00
48668;BME280;34453;52.198;5.004;2023-04-08T11:50:04;102731.25;;;16.17;100.00
48668;BME280;34453;52.198;5.004;2023-04-08T11:52:42;102730.41;;;16.16;100.00
48668;BME280;34453;52.198;5.004;2023-04-08T11:55:09;102731.09;;;15.88;100.00
48668;BME280;34453;52.198;5.004;2023-04-08T11:57:36;102735.41;;;16.20;100.00
48668;BME280;34453;52.198;5.004;2023-04-08T12:00:03;102725.38;;;16.44;100.00
48668;BME280;34453;52.198;5.004;2023-04-08T12:02:30;102724.94;;;16.39;100.00
48668;BME280;34453;52.198;5.004;2023-04-08T12:04:55;102722.06;;;16.52;100.00
48668;BME280;34453;52.198;5.004;2023-04-08T12:07:21;102736.34;;;16.49;100.00
48668;BME280;34453;52.198;5.004;2023-04-08T12:09:46;102737.16;;;16.40;100.00
48668;BME280;34453;52.198;5.004;2023-04-08T12:12:12;102728.63;;;16.27;100.00
48668;BME280;34453;52.198;5.004;2023-04-08T12:14:37;102735.84;;;16.25;100.00
48668;BME280;34453;52.198;5.004;2023-04-08T12:17:03;102734.97;;;16.45;100.00
48668;BME280;34453;52.198;5.004;2023-04-08T12:19:28;102733.28;;;16.44;100.00
48668;BME280;34453;52.198;5.004;2023-04-08T12:21:54;102733.09;;;16.36;100.00
48668;BME280;34453;52.198;5.004;2023-04-08T12:24:19;102733.97;;;16.36;100.00
48668;BME280;34453;52.198;5.004;2023-04-08T12:26:45;102725.16;;;16.26;100.00
48668;BME280;34453;52.198;5.004;2023-04-08T12:29:11;102732.69;;;16.31;100.00
48668;BME280;34453;52.198;5.004;2023-04-08T12:31:36;102733.00;;;16.37;100.00
48668;BME280;34453;52.198;5.004;2023-04-08T12:34:02;102736.84;;;16.33;100.00
48668;BME280;34453;52.198;5.004;2023-04-08T12:36:27;102733.81;;;16.38;100.00
48668;BME280;34453;52.198;5.004;2023-04-08T12:38:52;102735.09;;;16.44;100.00
48668;BME280;34453;52.198;5.004;2023-04-08T12:41:18;102740.78;;;16.39;100.00
48668;BME280;34453;52.198;5.004;2023-04-08T12:43:43;102738.00;;;16.41;100.00
48668;BME280;34453;52.198;5.004;2023-04-08T12:46:09;102742.84;;;16.35;100.00
48668;BME280;34453;52.198;5.004;2023-04-08T12:48:35;102730.44;;;16.26;100.00
48668;BME280;34453;52.198;5.004;2023-04-08T12:51:00;102730.13;;;16.50;100.00
48668;BME280;34453;52.198;5.004;2023-04-08T12:53:26;102726.97;;;16.26;100.00
48668;BME280;34453;52.198;5.004;2023-04-08T12:55:51;102723.81;;;16.32;100.00
48668;BME280;34453;52.198;5.004;2023-04-08T12:58:21;102727.53;;;16.70;100.00
48668;BME280;34453;52.198;5.004;2023-04-08T13:00:47;102728.69;;;16.87;100.00
48668;BME280;34453;52.198;5.004;2023-04-08T13:03:13;102733.56;;;16.41;100.00
48668;BME280;34453;52.198;5.004;2023-04-08T13:05:41;102738.84;;;16.10;100.00
48668;BME280;34453;52.198;5.004;2023-04-08T13:08:06;102740.53;;;15.90;100.00
48668;BME280;34453;52.198;5.004;2023-04-08T13:10:32;102734.72;;;15.54;100.00